XML Sitemap

This is a XML Sitemap which is supposed to be processed by search engines which follow the XML Sitemap standard like Ask.com, Bing, Google and Yahoo.
It was generated using the WordPress content management system and the Google Sitemap Generator Plugin by Arne Brachhold.
You can find more information about XML sitemaps on sitemaps.org and Google's list of sitemap programs.

URLPriorityChange frequencyLast modified (GMT)
https://farming-simulator15.ru/2018/06/30/mod-karta-selo-yagodnoe-v1-3-4-farming-simulyator-2017/60%Monthly2018-06-30 09:21
https://farming-simulator15.ru/2018/06/30/mod-traktor-buldozer-chtz-t-170-v-1-1-fermer-simulyator-2017/60%Monthly2018-06-30 09:16
https://farming-simulator15.ru/2018/06/30/mod-karta-lone-oak-farm-v1-0-0-0-farming-simulator-2017/60%Monthly2018-06-30 09:13
https://farming-simulator15.ru/2018/06/30/mod-skript-finer-timescale-adjustment-v1-0-farming-simulator-2017/60%Monthly2018-06-30 09:01
https://farming-simulator15.ru/2018/06/30/mod-pricep-tera-vitesse-cfs-5201-do-v1-0-farming-simulator-2017/60%Monthly2018-06-30 08:58
https://farming-simulator15.ru/2018/06/30/mod-valkovaya-zhatka-poettinger-300-v1-0-0-1-fs17/60%Monthly2018-06-30 08:54
https://farming-simulator15.ru/2018/06/30/mod-tyukopress-fahr-apn-v1-0-0-0-farming-simulator-17/60%Monthly2018-06-30 08:51
https://farming-simulator15.ru/2018/06/30/mod-pak-farming-classics-v1-0-0-0-farming-simulator-2017/60%Monthly2018-06-30 08:48
https://farming-simulator15.ru/2018/06/30/mod-pak-pricepov-autosan-d47-beta-v1-0-farming-simulator-17/60%Monthly2018-06-30 08:44
https://farming-simulator15.ru/2018/06/30/mod-plug-raven-super-dove-v1-0-farming-simulator-2017/60%Monthly2018-06-30 08:41
https://farming-simulator15.ru/2018/06/30/mod-salt-spreaders-v1-1-farming-simulator-2017/60%Monthly2018-06-30 08:38
https://farming-simulator15.ru/2018/06/28/mod-kombajn-enisej-1200-1-v1-0-edit-fermer-simulyator-2017/60%Monthly2018-06-28 09:43
https://farming-simulator15.ru/2018/06/28/mod-gruzoviki-maz-500a-bort-v1-0-farming-simulyator-2017/60%Monthly2018-06-28 09:39
https://farming-simulator15.ru/2018/06/28/mod-zil-4334-6x6-v1-1-fermer-simulyator-2017/60%Monthly2018-06-28 09:27
https://farming-simulator15.ru/2018/06/28/mod-pogruzchik-k-710m-pk-4-v2-1-farming-simulyator-2017/60%Monthly2018-06-28 09:23
https://farming-simulator15.ru/2018/06/28/mod-gazon-nekst-pak-v-4-0-fix-27-06-fermer-simulyator-2017/60%Monthly2018-06-28 09:19
https://farming-simulator15.ru/2018/06/28/mod-bochka-dlya-vody-i-zhidkix-udobrenij-v1-0-fermer-simulyator-2017/60%Monthly2018-06-28 10:13
https://farming-simulator15.ru/2018/06/28/mod-karta-maksimovka-v-2-3-1-edit-scholl-fix-fermer-simulyator-2017/60%Monthly2018-06-28 09:09
https://farming-simulator15.ru/2018/06/28/mod-gruzovik-zil-133-gya-bort-v1-2-fermer-simulyator-2017/60%Monthly2018-06-28 09:04
https://farming-simulator15.ru/2018/06/28/mod-pak-man-tgs-tipper-fire-v1-1-farming-simulator-2017/60%Monthly2018-06-28 09:02
https://farming-simulator15.ru/2018/06/28/mod-gruzovik-mercedes-arocs-3245-v1-1-farming-simulator-2017/60%Monthly2018-06-28 08:59
https://farming-simulator15.ru/2018/06/28/mod-pak-john-deere-6r-series-new-pack-v1-1-fs17/60%Monthly2018-06-28 08:53
https://farming-simulator15.ru/2018/06/28/mod-traktor-fendt-farmer-310-312-turbomatik-v2-0-farming-simulator-17/60%Monthly2018-06-28 08:49
https://farming-simulator15.ru/2018/06/28/mod-pak-pricepov-krampe-pack-v1-0-0-0-farming-simulator-2017/60%Monthly2018-06-28 08:45
https://farming-simulator15.ru/2018/06/27/mod-kursplej-courseplay-5-03-00003-fs17/60%Monthly2018-07-02 10:22
https://farming-simulator15.ru/2018/06/27/mod-gazon-nekst-pak-v-4-0-fermer-simulyator-2017/60%Monthly2018-06-27 08:16
https://farming-simulator15.ru/2018/06/27/mod-karta-sibagrokom-v2-1-fermer-simulyator-2017/60%Monthly2018-06-27 07:43
https://farming-simulator15.ru/2018/06/27/mod-karta-steinburg-map-v1-0-0-farming-simulator-17/60%Monthly2018-06-27 07:41
https://farming-simulator15.ru/2018/06/27/mod-traktor-deutz-fahr-6ttv-v1-1-farming-simulator-2017/60%Monthly2018-06-27 07:27
https://farming-simulator15.ru/2018/06/27/mod-xarvester-ponsse-wolverine-v1-0-farming-simulator-17/60%Monthly2018-06-27 07:24
https://farming-simulator15.ru/2018/06/27/mod-pak-stones-pack-v1-0-0-0-farming-simulator-2017/60%Monthly2018-06-27 07:21
https://farming-simulator15.ru/2018/06/26/mod-gruzovik-kamaz-65115-v1-0-fermer-simulyator-2017/60%Monthly2018-06-26 07:32
https://farming-simulator15.ru/2018/06/26/mod-traktor-mtz-2022-3-v2-0-edit-farming-simulyator-2017/60%Monthly2018-06-26 07:28
https://farming-simulator15.ru/2018/06/26/mod-pricep-pst-6-v1-1-fermer-simulyator-2017/60%Monthly2018-06-26 07:24
https://farming-simulator15.ru/2018/06/26/mod-pak-fortschritt-e512-pack-v1-2-farming-simulator-17/60%Monthly2018-06-26 07:20
https://farming-simulator15.ru/2018/06/26/mod-pak-man-kroger-pack-v4-0-farming-simulator-2017/60%Monthly2018-06-26 07:16
https://farming-simulator15.ru/2018/06/26/mod-tekstura-gryazi-dlya-koles-real-dirt-v1-0-0-0-fs17/60%Monthly2018-06-26 07:12
https://farming-simulator15.ru/2018/06/26/mod-pak-scania-lupal-v1-0-farming-simulator-2017/60%Monthly2018-06-26 07:08
https://farming-simulator15.ru/2018/06/26/mod-pricep-peregruzchik-hawe-ulw-3000-t-v1-0-farming-simulator-17/60%Monthly2018-06-26 07:06
https://farming-simulator15.ru/2018/06/26/mod-bronetransporter-spm3-v1-0-farming-simulator-2017/60%Monthly2018-06-26 07:03
https://farming-simulator15.ru/2018/06/26/mod-plug-zmaj-viper-7-v1-0-farming-simulator-2017/60%Monthly2018-06-26 06:59
https://farming-simulator15.ru/2018/06/26/mod-traktor-ursus-c-330-v-1-2-farming-simulator-17/60%Monthly2018-06-26 06:55
https://farming-simulator15.ru/2018/06/26/mod-zhatka-capello-hs32-24-4m-maize-header-v4-0-farming-simulator-2017/60%Monthly2018-06-26 06:50
https://farming-simulator15.ru/2018/06/25/mod-5-in-1-harvester-v1-0-farming-simulator-17/60%Monthly2018-06-25 08:48
https://farming-simulator15.ru/2018/06/25/mod-traktor-deutz-fahr-serie7-stageiv-v1-0-0-0-farming-simulator-2017/60%Monthly2018-06-25 08:36
https://farming-simulator15.ru/2018/06/25/mod-pak-jd-4045-sprayer-spreader-v1-1-farming-simulator-17/60%Monthly2018-06-25 08:34
https://farming-simulator15.ru/2018/06/25/mod-seyalka-john-deere-db120-v1-0-farming-simulator-2017/60%Monthly2018-06-25 08:30
https://farming-simulator15.ru/2018/06/25/mod-seyalka-amazone-ed3000-multifrucht-direktsaatdungefunktion-v1-0-fs17/60%Monthly2018-06-25 08:20
https://farming-simulator15.ru/2018/06/24/mod-karta-hopfach-v-9-9-8-rus-fermer-simulyator-2017/60%Monthly2018-06-24 09:32
https://farming-simulator15.ru/2018/06/24/mod-gazon-nekst-pak-v-3-0-parker-fermer-simulyator-2017/60%Monthly2018-06-24 09:24
https://farming-simulator15.ru/2018/06/24/mod-pogruzchik-amkodor-amcoder-to18-v1-2-farming-simulyator-2017/60%Monthly2018-06-24 09:20
https://farming-simulator15.ru/2018/06/24/mod-gruzovik-maz-5551-v1-0-fermer-simulyator-2017/60%Monthly2018-06-24 09:14
https://farming-simulator15.ru/2018/06/24/mod-pak-container-pack-v-1-0-farming-simulator-2017/60%Monthly2018-06-24 09:07
https://farming-simulator15.ru/2018/06/24/mod-xranilishhe-dlya-kartofelya-svekly-i-trostnika-v1-0-farming-simulator-17/60%Monthly2018-06-24 08:59
https://farming-simulator15.ru/2018/06/24/mod-karta-kolxoz-im-michurina-v-4-3-edit-scholl-fermer-simulyator-2017/60%Monthly2018-06-24 08:50
https://farming-simulator15.ru/2018/06/24/mod-tyukopress-claas-rollant-rundballenpresse-v1-2-0-fs17/60%Monthly2018-06-24 08:41
https://farming-simulator15.ru/2018/06/24/mod-valkovaya-zhatka-stoll-r1405s-v1-0-0-farming-simulator-2017/60%Monthly2018-06-24 08:38
https://farming-simulator15.ru/2018/06/22/mod-karta-novgorodovka-fermer-simulyator-2017/60%Monthly2018-06-23 14:05
https://farming-simulator15.ru/2018/06/22/mod-kombajn-john-deere-w330-v1-0-farming-simulator-2017/60%Monthly2018-06-22 08:42
https://farming-simulator15.ru/2018/06/22/mod-traktor-john-deere-6410-final-farming-simulator-17/60%Monthly2018-06-22 08:37
https://farming-simulator15.ru/2018/06/22/mod-traktor-john-deere-5080r-5085m-v1-0-farming-simulator-2017/60%Monthly2018-06-22 08:28
https://farming-simulator15.ru/2018/06/22/mod-tyagach-longline-green-tribal-v1-0-fs17/60%Monthly2018-06-22 08:17
https://farming-simulator15.ru/2018/06/21/mod-kursplej-courseplay-5-03-00002-farming-simulator-17/60%Monthly2018-06-21 08:13
https://farming-simulator15.ru/2018/06/21/mod-pricep-tonar-v1-1-fermer-simulyator-2017/60%Monthly2018-06-21 08:10
https://farming-simulator15.ru/2018/06/21/mod-kombajn-new-holland-tc57-fcs-v1-0-fs17/60%Monthly2018-06-21 08:06
https://farming-simulator15.ru/2018/06/21/mod-traktor-john-deere-8970-v1-0-0-0-farming-simulator-2017/60%Monthly2018-06-21 08:02
https://farming-simulator15.ru/2018/06/21/mod-pak-case-14xx-xl-v1-0-farming-simulator-2017/60%Monthly2018-06-21 07:57
https://farming-simulator15.ru/2018/06/21/mod-pricep-peregruzchik-frankhauser-8010-v1-0-farming-simulator-17/60%Monthly2018-06-21 07:47
https://farming-simulator15.ru/2018/06/21/mod-pak-pricepov-larrington-majestic-16t-v1-0-farming-simulator-2017/60%Monthly2018-06-21 07:43
https://farming-simulator15.ru/2018/06/20/mod-zil-pak-v1-0-3-3-fermer-simulyator-2017/60%Monthly2018-06-20 09:02
https://farming-simulator15.ru/2018/06/20/mod-pricep-mbp-6-5-v1-0-farming-simulator-2017/60%Monthly2018-06-20 08:59
https://farming-simulator15.ru/2018/06/20/mod-tyukopress-new-holland-d1000-v1-0-farming-simulator-2017/60%Monthly2018-06-20 08:56
https://farming-simulator15.ru/2018/06/20/mod-pak-fortschritt-e303-pack-v2-0-farming-simulator-17/60%Monthly2018-06-20 08:52
https://farming-simulator15.ru/2018/06/20/mod-traktor-jcb-fastrac-150-turbo-v1-0-farming-simulator-2017/60%Monthly2018-06-20 08:45
https://farming-simulator15.ru/2018/06/20/mod-traktor-valtra-hitech-v1-0-farming-simulator-2017/60%Monthly2018-06-20 08:43
https://farming-simulator15.ru/2018/06/20/mod-razbrasyvatel-zhidkogo-navoza-kotte-taurus-2803-beta-v0-9-fs17/60%Monthly2018-06-20 08:37
https://farming-simulator15.ru/2018/06/20/mod-kvadrocikl-polaris-sportsman-big-boss-6x6-v1-1-fs17/60%Monthly2018-06-20 08:34
https://farming-simulator15.ru/2018/06/20/mod-opryskivatel-fendt-rogator-300-v1-0-0-farming-simulator-17/60%Monthly2018-06-20 08:31
https://farming-simulator15.ru/2018/06/20/mod-obmotchik-tyukov-enorossi-bw300-v1-1-0-farming-simulator-2017/60%Monthly2018-06-20 08:28
https://farming-simulator15.ru/2018/06/18/mod-traktor-yumz-6g-v1-4-fermer-simulyator-2017/60%Monthly2018-06-18 09:38
https://farming-simulator15.ru/2018/06/18/mod-karta-maksimovka-v-2-3-1-edit-scholl-farming-simulyator-2017/60%Monthly2018-06-18 09:35
https://farming-simulator15.ru/2018/06/18/mod-gruzovik-kamaz-55102-v1-1-fermer-simulyator-2017/60%Monthly2018-06-18 09:29
https://farming-simulator15.ru/2018/06/18/mod-traktor-kirovec-k-701p-v1-0-fermer-simulyator-2017/60%Monthly2018-06-18 09:15
https://farming-simulator15.ru/2018/06/18/mod-gruzovik-maz-5551-v1-0-0-0-farming-simulyator-2017/60%Monthly2018-06-18 09:09
https://farming-simulator15.ru/2018/06/18/mod-traktor-mtz-1221-v2-0-0-0-fermer-simulyator-2017/60%Monthly2018-06-18 09:05
https://farming-simulator15.ru/2018/06/18/mod-traktor-belarus-mtz-80-v1-2-0-0-farming-simulyator-2017/60%Monthly2018-06-18 09:01
https://farming-simulator15.ru/2018/06/18/mod-gruzovik-gaz-saz-33071-v1-0-fermer-simulyator-2017/60%Monthly2018-06-18 08:56
https://farming-simulator15.ru/2018/06/18/mod-traktor-fendt-trisix-v1-1-1-0-farming-simulator-2017/60%Monthly2018-06-18 08:52
https://farming-simulator15.ru/2018/06/18/mod-traktor-claas-xerion-3300-3800-v-2-0-finale-farming-simulator-17/60%Monthly2018-06-18 08:47
https://farming-simulator15.ru/2018/06/18/mod-pak-custom-road-train-pack-v-2-2-fs17/60%Monthly2018-06-18 08:43
https://farming-simulator15.ru/2018/06/17/mod-karta-sibagrokom-v2-1-101-farming-simulyator-2017/60%Monthly2018-06-17 07:48
https://farming-simulator15.ru/2018/06/17/mod-tyagach-maz-6317-v-1-0-fermer-simulyator-2017/60%Monthly2018-06-17 07:42
https://farming-simulator15.ru/2018/06/17/mod-tochka-prodazhi-bestprice-v1-2-fs17/60%Monthly2018-06-17 07:39
https://farming-simulator15.ru/2018/06/17/mod-skript-change-modtitle-v1-0-farming-simulator-17/60%Monthly2018-06-17 07:36
https://farming-simulator15.ru/2018/06/17/mod-skript-fastsilofill-by-tode93-farming-simulator-2017/60%Monthly2018-06-17 07:32
https://farming-simulator15.ru/2018/06/15/mod-traktor-mtz-mtz-82-belarus-v1-0-farming-simulyator-2017/60%Monthly2018-06-15 05:59
https://farming-simulator15.ru/2018/06/15/mod-traktor-mtz-mtz-82-ts-belarus-v1-0-fermer-simulyator-2017/60%Monthly2018-06-15 05:55
https://farming-simulator15.ru/2018/06/15/mod-traktor-massey-ferguson-8700-by-alex-blue-v1-0-1-5-farming-simulator-17/60%Monthly2018-06-15 05:53
https://farming-simulator15.ru/2018/06/15/mod-traktor-fendt-900-vario-tms-v1-2-farming-simulator-2017/60%Monthly2018-06-15 05:49
https://farming-simulator15.ru/2018/06/15/mod-traktor-new-holland-t7-heavy-duty-v1-4-fs17/60%Monthly2018-06-15 05:42
https://farming-simulator15.ru/2018/06/15/mod-traktor-john-deere-6-series-v1-0-farming-simulator-2017/60%Monthly2018-06-15 05:39
https://farming-simulator15.ru/2018/06/15/mod-kombajn-john-deere-s600-us-version-model-2012-v1-1-farming-simulator-17/60%Monthly2018-06-15 05:26
https://farming-simulator15.ru/2018/06/15/mod-seyalka-amazone-multifrucht-direktsaat-6m-dungefunktion-v1-2-fs17/60%Monthly2018-06-15 05:23
https://farming-simulator15.ru/2018/06/15/mod-seyalka-baldan-pp-solo-cx3-4000-v1-0-fs17/60%Monthly2018-06-15 05:18
https://farming-simulator15.ru/2018/06/15/mod-kultivator-brenig-saatbettkombi-3m-v1-0-farming-simulator-2017/60%Monthly2018-06-15 05:14
https://farming-simulator15.ru/2018/06/15/mod-pak-csz-set-11-3-0-0-farming-simulator-17/60%Monthly2018-06-15 05:10
https://farming-simulator15.ru/2018/06/12/skrinshoty-farming-simulator-19/60%Monthly2018-06-12 11:13
https://farming-simulator15.ru/2018/06/12/video-farming-simulator-19-e3-cgi-trailer/60%Monthly2018-06-12 11:06
https://farming-simulator15.ru/2018/06/12/mod-karta-spk-borki-agro-farming-simulyator-2017/60%Monthly2018-06-12 08:54
https://farming-simulator15.ru/2018/06/12/mod-tyagach-kamaz-65226-v1-0-fermer-simulyator-2017/60%Monthly2018-06-12 08:51
https://farming-simulator15.ru/2018/06/12/mod-pak-gazon-next-pak-fixed-farming-simulyator-2017/60%Monthly2018-06-12 08:57
https://farming-simulator15.ru/2018/06/12/mod-traktor-agromash-agromash-ruslan-v1-0-1-0-fermer-simulyator-2017/60%Monthly2018-06-12 08:32
https://farming-simulator15.ru/2018/06/12/mod-kultivator-smykove-brany-4m-v1-0-farming-simulator-17/60%Monthly2018-06-12 08:19
https://farming-simulator15.ru/2018/06/12/mod-traktor-deutz-9005a-v-0-9-farming-simulator-2017/60%Monthly2018-06-12 08:14
https://farming-simulator15.ru/2018/06/09/mod-traktor-case-2870-traction-king-v1-0-farming-simulator-17/60%Monthly2018-06-09 07:01
https://farming-simulator15.ru/2018/06/09/mod-traktor-fergusson-lava-v1-0-farming-simulator-2017/60%Monthly2018-06-09 06:58
https://farming-simulator15.ru/2018/06/09/mod-navozorazbrasyvatel-knight-slc141-manure-spreader-v1-0-fs17/60%Monthly2018-06-09 06:55
https://farming-simulator15.ru/2018/06/08/mod-gruzovik-maz-500-v1-0-0-1-farming-simulyator-2017/60%Monthly2018-06-08 07:39
https://farming-simulator15.ru/2018/06/08/mod-pak-zil-4334-v1-1-fermer-simulyator-2017/60%Monthly2018-06-08 07:32
https://farming-simulator15.ru/2018/06/08/mod-kombajn-enisej-1200-rm-v2-0-0-1-fermer-simulyator-2017/60%Monthly2018-06-08 07:27
https://farming-simulator15.ru/2018/06/08/mod-karta-canadian-village-map-v3-1-fs17/60%Monthly2018-06-08 07:24
https://farming-simulator15.ru/2018/06/08/mod-pak-ulev-beehive-v1-0-0-0-farming-simulator-2017/60%Monthly2018-06-08 07:13
https://farming-simulator15.ru/2018/06/08/mod-pricep-eb-4-v1-0-farming-simulator-17/60%Monthly2018-06-08 07:11
https://farming-simulator15.ru/2018/06/08/mod-pak-man-skip-truck-with-container-v1-0-farming-simulator-2017/60%Monthly2018-06-08 07:04
https://farming-simulator15.ru/2018/06/07/mod-gruzovik-zil-130-pricep-v1-1-fermer-simulyator-2017/60%Monthly2018-06-07 07:40
https://farming-simulator15.ru/2018/06/07/mod-uaz-3303-v2-0-fermer-simulyator-2017/60%Monthly2018-06-07 07:35
https://farming-simulator15.ru/2018/06/07/mod-traktor-mtz-mtz-80-5-2l-v1-0-fermer-simulyator-2017/60%Monthly2018-06-07 07:32
https://farming-simulator15.ru/2018/06/07/mod-avto-shelby-cobra-green-v1-0-fs17/60%Monthly2018-06-07 07:29
https://farming-simulator15.ru/2018/06/07/mod-traktora-john-deere-7430-7530-v4-full-pack-farming-simulator-17/60%Monthly2018-06-07 07:24
https://farming-simulator15.ru/2018/06/07/mod-skript-animal-notifications-v-1-1-0-1-farming-simulator-17/60%Monthly2018-06-07 07:21
https://farming-simulator15.ru/2018/06/07/mod-pak-pricepy-fliegl-dpw180-vaszics-pack-v-1-1-farming-simulator-2017/60%Monthly2018-06-07 07:16
https://farming-simulator15.ru/2018/06/06/mod-kombajn-enisej-1200-rm-v2-0-fermer-simulyator-2017/60%Monthly2018-06-06 10:22
https://farming-simulator15.ru/2018/06/06/mod-karta-pgr-sliwno-v1-0-0-0-farming-simulator-2017/60%Monthly2018-06-06 10:18
https://farming-simulator15.ru/2018/06/06/mod-pololnik-agromasz-bm-v1-0-0-0-farming-simulator-2017/60%Monthly2018-06-06 10:15
https://farming-simulator15.ru/2018/06/06/mod-tyukopress-gallignani-9250-sl-v1-0-0-0-farming-simulator-17/60%Monthly2018-06-06 10:13
https://farming-simulator15.ru/2018/06/06/mod-kultivator-sicma-rm-235-v1-0-0-0-farming-simulator-2017/60%Monthly2018-06-06 10:10
https://farming-simulator15.ru/2018/06/06/mod-pricep-peregruzchik-metaltech-pp-14-v1-0-0-0-fs17/60%Monthly2018-06-06 10:08
https://farming-simulator15.ru/2018/06/06/mod-pak-pricepy-metaltech-tb-20-v1-0-0-0-fs17/60%Monthly2018-06-06 10:05
https://farming-simulator15.ru/2018/06/06/mod-pricep-bss-p93sh-v1-0-0-0-farming-simulator-2017/60%Monthly2018-06-06 10:02
https://farming-simulator15.ru/2018/06/06/mod-pak-pricepy-metaltech-ts16-v1-1-0-0-farming-simulator-2017/60%Monthly2018-06-06 09:58
https://farming-simulator15.ru/2018/06/06/mod-pak-pricepy-kroger-hkd-tkd-302-402-v1-0-farming-simulator-17/60%Monthly2018-06-06 09:55
https://farming-simulator15.ru/2018/06/05/mod-gruzovik-maz-538-v1-1-fermer-simulyator-2017/60%Monthly2018-06-05 09:26
https://farming-simulator15.ru/2018/06/05/mod-traktor-renault-ares-series-600-v1-0-farming-simulator-17/60%Monthly2018-06-05 09:22
https://farming-simulator15.ru/2018/06/05/mod-traktor-claas-ares-616-rz-v1-0-0-0-farming-simulator-17/60%Monthly2018-06-05 09:18
https://farming-simulator15.ru/2018/06/05/mod-traktor-deutz-fahr-intrac-v1-1-0-0-farming-simulator-2017/60%Monthly2018-06-05 09:05
https://farming-simulator15.ru/2018/06/05/mod-raspredelitel-udobrenij-rauch-axento-gigant-v2-0-0-fs17/60%Monthly2018-06-05 08:58
https://farming-simulator15.ru/2018/06/05/mod-vily-stoll-palettengabel-mit-breitenverstellung-v1-0-fs17/60%Monthly2018-06-05 08:55
https://farming-simulator15.ru/2018/06/04/mod-pak-maz-504-v1-1-farming-simulyator-2017/60%Monthly2018-06-04 09:40
https://farming-simulator15.ru/2018/06/04/mod-gruzovik-maz-5549-v1-1-fermer-simulyator-2017/60%Monthly2018-06-04 09:36
https://farming-simulator15.ru/2018/06/04/mod-pak-maz-514-v1-1-farming-simulyator-2017/60%Monthly2018-06-04 09:33
https://farming-simulator15.ru/2018/06/04/mod-tyagach-ural-63099-v1-1-fermer-simulyator-2017/60%Monthly2018-06-04 09:28
https://farming-simulator15.ru/2018/06/04/mod-gruzovik-renault-low-loader-truck-with-folding-ramps-v1-0-0-1-fs17/60%Monthly2018-06-04 09:22
https://farming-simulator15.ru/2018/06/04/mod-pak-pogruzchiki-caterpillar-980-25000l-v1-0-0-fs17/60%Monthly2018-06-04 09:19
https://farming-simulator15.ru/2018/06/03/mod-lesopilka-sawmill-new-v1-1-5-farming-simulator-2017/60%Monthly2018-06-03 09:12
https://farming-simulator15.ru/2018/06/03/mod-traktor-claas-axion-800-farming-simulator-2017/60%Monthly2018-06-03 09:06
https://farming-simulator15.ru/2018/06/03/mod-kultivator-jd-2720-disc-ripper-v1-0-fs17/60%Monthly2018-06-03 09:02
https://farming-simulator15.ru/2018/06/03/mod-gruzovik-volkswagen-18310-v1-0-farming-simulator-17/60%Monthly2018-06-03 08:58
https://farming-simulator15.ru/2018/06/03/mod-placeable-honey-farm-v1-0-farming-simulator-2017/60%Monthly2018-06-03 08:53
https://farming-simulator15.ru/2018/06/02/mod-pak-gaz-3309-dobrynya-v1-2-farming-simulyator-2017/60%Monthly2018-06-02 09:25
https://farming-simulator15.ru/2018/06/02/mod-karta-budni-traktorista-v3-0-fermer-simulyator-2017/60%Monthly2018-06-02 09:21
https://farming-simulator15.ru/2018/06/02/mod-traktor-fendt-828-vario-s3-v1-1-0-0-farming-simulator-2017/60%Monthly2018-06-02 09:16
https://farming-simulator15.ru/2018/06/02/mod-traktor-new-holland-t7-290-315-chip-v2-1-0-fs17/60%Monthly2018-06-02 09:03
https://farming-simulator15.ru/2018/06/01/mod-samosval-ural-m-v1-0-farming-simulyator-2017/60%Monthly2018-06-01 07:01
https://farming-simulator15.ru/2018/06/01/mod-pak-ural-4320-v-1-2-fermer-simulyator-2017/60%Monthly2018-06-01 06:58
https://farming-simulator15.ru/2018/06/01/mod-karta-goldcrest-valley-multifruit-by-princo-fs17/60%Monthly2018-06-01 06:56
https://farming-simulator15.ru/2018/06/01/mod-traktor-renault-atles-925rz-v1-2-farming-simulator-17/60%Monthly2018-06-01 06:51
https://farming-simulator15.ru/2018/06/01/mod-traktor-kramer-kl714-v1-0-fs17/60%Monthly2018-06-01 06:47
https://farming-simulator15.ru/2018/06/01/mod-avto-peugeot-406-taxi-v1-0-farming-simulator-2017/60%Monthly2018-06-01 06:43
https://farming-simulator15.ru/2018/06/01/mod-pricep-marchner-streumix-v1-2-farming-simulator-17/60%Monthly2018-06-01 06:40
https://farming-simulator15.ru/2018/06/01/mod-shhepodrobilka-hm-4-300-v1-0-0-0-farming-simulator-2017/60%Monthly2018-06-01 06:36